Time;durP1;ratioP1;P1;durP2;ratioP2;P2;SDS_P1;SDS_P2;PMS_P1;PMS_P2;Temp;Humidity;BMP_temperature;BMP_pressure;BME280_temperature;BME280_humidity;BME280_pressure;Samples;Min_cycle;Max_cycle;Signal;HPM_P1;HPM_P2
2021/12/13 00:00:57;;;;;;;35.40;21.07;;;;;;;9.18;97.19;102101.00;5116694;28;20497;-71
2021/12/13 00:03:33;;;;;;;40.97;23.03;;;;;;;9.15;97.44;102103.66;5116315;28;20611;-70
2021/12/13 00:06:08;;;;;;;34.57;20.10;;;;;;;9.18;97.24;102101.00;5115969;28;20509;-70
2021/12/13 00:08:37;;;;;;;36.93;20.53;;;;;;;9.21;97.48;102096.56;5115856;28;20545;-70
2021/12/13 00:11:11;;;;;;;27.70;19.27;;;;;;;9.22;97.45;102105.31;5116159;28;20576;-70
2021/12/13 00:13:43;;;;;;;30.20;18.27;;;;;;;9.23;97.46;102107.91;5115869;28;20223;-70
2021/12/13 00:16:12;;;;;;;38.13;19.57;;;;;;;9.33;97.55;102106.00;5115791;28;20170;-70
2021/12/13 00:18:45;;;;;;;33.87;20.17;;;;;;;9.29;97.45;102101.72;5115310;28;20274;-71
2021/12/13 00:21:23;;;;;;;40.13;19.60;;;;;;;9.22;97.30;102102.69;5115275;28;20271;-71
2021/12/13 00:23:55;;;;;;;30.40;18.83;;;;;;;9.25;97.44;102105.25;5115642;28;20165;-70
2021/12/13 00:26:29;;;;;;;29.43;19.37;;;;;;;9.25;97.46;102100.03;5115280;28;20169;-73
2021/12/13 00:28:57;;;;;;;29.90;18.20;;;;;;;9.19;97.19;102103.56;5131057;27;20254;-73
2021/12/13 00:31:48;;;;;;;26.23;18.63;;;;;;;9.17;97.63;102102.75;5115186;28;20178;-73
2021/12/13 00:34:27;;;;;;;31.23;19.47;;;;;;;9.15;97.39;102107.13;5115745;28;20222;-73
2021/12/13 00:37:22;;;;;;;32.40;19.50;;;;;;;9.10;97.33;102099.34;5115261;28;20230;-73
2021/12/13 00:40:01;;;;;;;33.90;18.83;;;;;;;9.10;97.40;102095.88;5115027;28;20341;-73
2021/12/13 00:42:33;;;;;;;34.07;18.47;;;;;;;9.09;97.69;102102.84;5115611;28;20226;-73
2021/12/13 00:45:07;;;;;;;34.57;19.70;;;;;;;9.14;97.02;102102.75;5114961;28;20177;-73
2021/12/13 00:47:36;;;;;;;29.03;18.43;;;;;;;9.03;97.56;102102.91;5114884;28;20219;-73
2021/12/13 00:50:02;;;;;;;37.80;19.77;;;;;;;9.08;97.35;102105.47;5115340;28;20192;-73
2021/12/13 00:52:32;;;;;;;39.43;19.00;;;;;;;9.04;97.67;102104.63;5114773;28;20610;-73
2021/12/13 00:55:00;;;;;;;37.53;19.10;;;;;;;9.04;97.73;102101.16;5115328;28;20189;-73
2021/12/13 00:57:29;;;;;;;26.23;18.40;;;;;;;9.01;97.96;102107.31;5114584;28;20197;-73
2021/12/13 01:00:04;;;;;;;25.87;17.90;;;;;;;9.06;97.80;102107.22;5114528;28;20213;-73
2021/12/13 01:02:39;;;;;;;23.87;15.43;;;;;;;8.99;98.13;102116.88;5114740;28;20168;-73
2021/12/13 01:05:06;;;;;;;35.07;16.70;;;;;;;9.04;98.00;102122.94;5114549;28;20169;-73
2021/12/13 01:07:32;;;;;;;23.27;17.40;;;;;;;8.94;98.10;102121.31;5114467;28;20181;-74
2021/12/13 01:10:17;;;;;;;24.63;18.47;;;;;;;8.96;98.11;102127.38;5114354;28;20698;-73
2021/12/13 01:12:50;;;;;;;25.73;17.60;;;;;;;8.92;98.19;102125.69;5114911;28;20245;-74
2021/12/13 01:15:38;;;;;;;27.90;18.47;;;;;;;8.95;98.15;102125.66;5114657;28;20509;-74
2021/12/13 01:18:30;;;;;;;26.73;18.00;;;;;;;8.96;98.13;102127.38;5114408;28;20213;-73
2021/12/13 01:23:54;;;;;;;29.63;18.07;;;;;;;8.95;98.15;102128.28;5114492;28;20748;-74
2021/12/13 01:26:37;;;;;;;28.30;17.57;;;;;;;8.96;98.10;102135.22;5114135;28;20188;-74
2021/12/13 01:29:11;;;;;;;28.87;18.13;;;;;;;8.96;98.05;102137.84;5114050;28;20226;-74
2021/12/13 01:31:47;;;;;;;28.70;18.43;;;;;;;8.92;97.95;102140.50;5114393;28;20222;-74
2021/12/13 01:34:15;;;;;;;27.73;17.70;;;;;;;8.95;97.87;102151.78;5114650;28;20181;-74
2021/12/13 01:36:57;;;;;;;33.50;17.70;;;;;;;8.95;97.95;102146.56;5113991;28;20249;-74
2021/12/13 01:39:27;;;;;;;29.70;18.23;;;;;;;8.97;97.68;102154.38;5113890;28;20246;-74
2021/12/13 01:41:59;;;;;;;27.87;18.20;;;;;;;8.91;97.83;102152.69;5114221;28;20177;-74
2021/12/13 01:44:31;;;;;;;32.37;19.43;;;;;;;8.87;98.18;102147.53;5095678;28;20234;-74
2021/12/13 01:47:03;;;;;;;29.77;17.67;;;;;;;8.90;97.91;102156.19;5113894;28;20177;-74
2021/12/13 01:49:35;;;;;;;28.93;18.90;;;;;;;8.94;97.97;102157.03;5113752;28;20208;-74
2021/12/13 01:52:16;;;;;;;29.27;18.30;;;;;;;8.92;97.64;102154.41;5113793;28;20672;-74
2021/12/13 01:54:43;;;;;;;24.77;17.10;;;;;;;8.95;97.58;102167.47;5114093;28;20230;-74
2021/12/13 01:59:55;;;;;;;28.03;17.93;;;;;;;8.88;98.00;102160.56;5113982;28;20201;-73
2021/12/13 02:02:33;;;;;;;34.70;18.70;;;;;;;8.89;97.78;102164.91;5113995;28;20615;-74
2021/12/13 02:05:20;;;;;;;28.10;17.67;;;;;;;8.90;97.74;102160.56;5114251;28;20256;-74
2021/12/13 02:07:46;;;;;;;27.33;18.50;;;;;;;8.83;97.81;102172.81;5088611;28;20601;-74
2021/12/13 02:10:20;;;;;;;29.10;18.13;;;;;;;8.88;97.78;102171.03;5113897;28;20305;-74
2021/12/13 02:12:55;;;;;;;27.53;18.70;;;;;;;8.82;97.92;102171.09;5114178;28;20201;-74
2021/12/13 02:18:11;;;;;;;30.20;17.97;;;;;;;8.79;97.78;102172.00;5117942;28;20205;-74
2021/12/13 02:20:42;;;;;;;31.27;18.20;;;;;;;8.78;97.47;102165.00;5118002;28;20192;-74
2021/12/13 02:23:09;;;;;;;25.23;17.30;;;;;;;8.83;97.60;102168.44;5118027;28;20177;-71
2021/12/13 02:25:49;;;;;;;28.83;17.47;;;;;;;8.84;97.08;102169.31;5118182;28;20181;-71
2021/12/13 02:28:20;;;;;;;31.70;17.07;;;;;;;8.80;97.21;102171.09;5117559;28;20192;-71
2021/12/13 02:30:56;;;;;;;29.43;18.80;;;;;;;8.83;97.04;102178.91;5118131;28;20238;-71
2021/12/13 02:33:46;;;;;;;30.30;18.47;;;;;;;8.89;96.53;102170.13;5117517;28;20173;-71
2021/12/13 02:36:20;;;;;;;24.30;17.40;;;;;;;8.77;97.00;102165.91;5117714;28;20188;-71
2021/12/13 02:38:50;;;;;;;28.40;16.67;;;;;;;8.78;96.87;102170.22;5117573;28;20269;-71
2021/12/13 02:41:22;;;;;;;34.00;19.53;;;;;;;8.81;96.67;102170.22;5118280;28;20223;-71
2021/12/13 02:43:54;;;;;;;27.67;19.20;;;;;;;8.79;96.66;102166.75;5117597;28;20169;-70
2021/12/13 02:46:21;;;;;;;34.10;19.23;;;;;;;8.80;96.51;102165.88;5117531;28;20614;-70
2021/12/13 02:48:57;;;;;;;29.63;18.23;;;;;;;8.84;96.45;102164.09;5117234;28;20236;-71
2021/12/13 02:51:45;;;;;;;37.10;19.47;;;;;;;8.82;96.31;102173.69;5117433;28;20177;-71
2021/12/13 02:54:19;;;;;;;31.87;18.60;;;;;;;8.80;96.34;102172.84;5117427;28;20165;-70
2021/12/13 02:57:02;;;;;;;23.40;16.37;;;;;;;8.88;96.03;102171.03;5117339;28;20173;-70
2021/12/13 02:59:32;;;;;;;24.47;15.47;;;;;;;8.84;96.24;102177.16;5098810;28;20281;-71
2021/12/13 03:02:06;;;;;;;21.70;16.20;;;;;;;8.88;95.91;102180.59;5117236;28;20584;-71
2021/12/13 03:04:34;;;;;;;26.30;17.90;;;;;;;8.90;96.07;102178.84;5099180;28;20184;-70
2021/12/13 03:07:18;;;;;;;20.53;16.53;;;;;;;8.84;95.83;102174.53;5117092;28;20659;-70
2021/12/13 03:09:48;;;;;;;25.03;15.77;;;;;;;8.82;95.57;102176.31;5116987;28;20257;-71
2021/12/13 03:12:16;;;;;;;20.40;15.20;;;;;;;8.73;95.72;102187.72;5116750;28;20193;-70
2021/12/13 03:14:48;;;;;;;21.20;16.20;;;;;;;8.80;95.83;102178.06;5116671;28;20250;-70
2021/12/13 03:17:32;;;;;;;33.60;17.00;;;;;;;8.84;95.54;102179.75;5117187;28;20226;-70
2021/12/13 03:20:25;;;;;;;21.43;16.13;;;;;;;8.71;95.66;102193.81;5116557;28;20262;-70
2021/12/13 03:22:58;;;;;;;22.70;15.23;;;;;;;8.70;95.81;102187.72;5116494;28;20189;-70
2021/12/13 03:25:39;;;;;;;22.63;14.77;;;;;;;8.71;95.88;102185.97;5098676;28;20626;-70
2021/12/13 03:28:43;;;;;;;18.13;14.23;;;;;;;8.72;95.70;102182.53;5116945;28;20202;-70
2021/12/13 03:31:24;;;;;;;25.27;13.73;;;;;;;8.79;95.78;102189.41;5116856;28;20199;-70
2021/12/13 03:34:03;;;;;;;16.43;13.50;;;;;;;8.69;95.76;102187.75;5116366;28;20198;-70
2021/12/13 03:36:52;;;;;;;19.90;13.53;;;;;;;8.74;95.93;102194.66;5098033;28;20246;-70
2021/12/13 03:39:23;;;;;;;19.43;12.93;;;;;;;8.76;96.06;102186.81;5116198;28;20258;-71
2021/12/13 03:41:52;;;;;;;13.20;11.77;;;;;;;8.87;95.83;102186.72;5097953;28;20600;-70
2021/12/13 03:44:28;;;;;;;13.60;12.33;;;;;;;8.81;95.71;102185.88;5116398;28;20535;-70
2021/12/13 03:47:00;;;;;;;14.23;13.03;;;;;;;8.89;95.23;102195.38;5116387;28;20169;-70
2021/12/13 03:49:27;;;;;;;14.40;12.97;;;;;;;8.89;95.31;102190.16;5116008;28;20704;-70
2021/12/13 03:51:57;;;;;;;15.13;12.03;;;;;;;8.77;95.09;102186.78;5098467;28;20197;-70
2021/12/13 03:54:26;;;;;;;11.90;10.97;;;;;;;8.80;95.08;102189.38;5115939;28;20186;-70
2021/12/13 03:56:55;;;;;;;12.80;11.43;;;;;;;8.71;95.11;102181.63;5116107;28;20193;-70
2021/12/13 03:59:24;;;;;;;14.90;12.43;;;;;;;8.76;94.47;102187.69;5115696;28;20217;-70
2021/12/13 04:01:55;;;;;;;14.97;11.80;;;;;;;8.67;94.90;102187.78;5097438;28;20242;-70
2021/12/13 04:04:31;;;;;;;12.87;11.63;;;;;;;8.69;94.75;102190.38;5115715;28;20584;-70
2021/12/13 04:07:08;;;;;;;16.60;11.50;;;;;;;8.61;94.98;102192.19;5115704;28;20165;-70
2021/12/13 04:09:35;;;;;;;13.57;11.13;;;;;;;8.67;94.86;102190.38;5115607;28;20205;-70
2021/12/13 04:12:06;;;;;;;18.07;12.23;;;;;;;8.70;94.77;102190.34;5116107;28;20585;-70
2021/12/13 04:14:39;;;;;;;11.33;10.53;;;;;;;8.71;94.91;102192.06;5115813;28;20181;-70
2021/12/13 04:17:37;;;;;;;13.23;10.67;;;;;;;8.67;94.92;102185.16;5097177;28;20246;-70
2021/12/13 04:20:09;;;;;;;11.50;10.30;;;;;;;8.70;95.04;102189.47;5115327;28;20193;-71
2021/12/13 04:22:38;;;;;;;11.90;10.97;;;;;;;8.70;94.90;102195.56;5116421;28;20247;-71
2021/12/13 04:25:13;;;;;;;11.87;10.77;;;;;;;8.68;94.92;102188.63;5116326;28;20553;-70
2021/12/13 04:28:03;;;;;;;12.50;9.70;;;;;;;8.67;94.86;102187.78;5115140;28;20199;-71
2021/12/13 04:30:40;;;;;;;10.17;9.13;;;;;;;8.57;95.04;102193.09;5115159;28;20189;-70
2021/12/13 04:33:18;;;;;;;10.83;9.53;;;;;;;8.60;94.55;102188.72;5115443;28;20697;-70
2021/12/13 04:35:50;;;;;;;11.07;9.83;;;;;;;8.66;94.44;102195.63;5115362;28;20177;-70
2021/12/13 04:38:32;;;;;;;12.40;9.83;;;;;;;8.60;94.75;102193.06;5096523;28;20209;-71
2021/12/13 04:41:00;;;;;;;10.83;9.97;;;;;;;8.61;94.88;102192.19;5115352;28;20165;-70
2021/12/13 04:43:26;;;;;;;10.70;9.60;;;;;;;8.62;94.70;102205.22;5115224;28;20639;-70
2021/12/13 04:46:00;;;;;;;12.70;10.20;;;;;;;8.62;94.74;102200.00;5114879;28;20185;-70
2021/12/13 04:48:32;;;;;;;11.77;8.80;;;;;;;8.62;94.77;102204.34;5115365;28;20264;-70
2021/12/13 04:51:04;;;;;;;9.27;8.77;;;;;;;8.56;94.89;102202.66;5115365;28;20512;-70
2021/12/13 04:53:41;;;;;;;10.80;9.83;;;;;;;8.52;95.04;102201.84;5096602;28;20239;-70
2021/12/13 04:56:15;;;;;;;9.33;8.80;;;;;;;8.60;94.65;102207.00;5115267;28;20177;-70
2021/12/13 04:58:46;;;;;;;10.53;9.53;;;;;;;8.55;95.08;102201.78;5114702;28;20692;-70
2021/12/13 05:01:16;;;;;;;8.40;7.87;;;;;;;8.65;95.02;102204.34;5114618;28;20252;-70
2021/12/13 05:03:49;;;;;;;8.77;8.13;;;;;;;8.54;94.87;102209.66;5114860;28;20682;-70
2021/12/13 05:06:20;;;;;;;9.00;8.10;;;;;;;8.53;95.02;102205.31;5114580;28;20192;-70
2021/12/13 05:08:49;;;;;;;8.97;8.17;;;;;;;8.55;94.93;102204.41;5114584;28;20200;-71
2021/12/13 05:11:17;;;;;;;12.43;9.37;;;;;;;8.48;95.13;102207.09;5114403;28;20169;-70
2021/12/13 05:13:52;;;;;;;9.83;9.03;;;;;;;8.50;95.31;102208.81;5114406;28;20231;-73
2021/12/13 05:16:28;;;;;;;8.33;7.73;;;;;;;8.61;94.62;102213.06;5114646;28;20180;-73
2021/12/13 05:18:58;;;;;;;8.27;7.87;;;;;;;8.49;94.94;102206.19;5114126;28;20261;-73
2021/12/13 05:21:33;;;;;;;8.83;8.33;;;;;;;8.48;95.04;102212.31;5114464;28;20196;-73
2021/12/13 05:24:05;;;;;;;8.00;7.50;;;;;;;8.57;94.56;102201.78;5114255;28;20222;-73
2021/12/13 05:26:36;;;;;;;8.67;8.07;;;;;;;8.46;94.55;102204.50;5115064;28;20531;-73
2021/12/13 05:29:21;;;;;;;8.33;7.70;;;;;;;8.51;94.52;102197.50;5114245;28;20250;-73
2021/12/13 05:32:18;;;;;;;8.33;7.57;;;;;;;8.46;94.48;102194.06;5114413;28;20192;-73
2021/12/13 05:34:49;;;;;;;7.67;7.17;;;;;;;8.41;94.70;102200.19;5106579;28;20708;-73
2021/12/13 05:37:16;;;;;;;7.40;7.00;;;;;;;8.43;94.80;102204.53;5114570;28;20181;-73
2021/12/13 05:40:18;;;;;;;7.53;7.27;;;;;;;8.39;94.84;102202.81;5095754;28;20209;-73
2021/12/13 05:42:57;;;;;;;7.40;7.10;;;;;;;8.46;94.48;102211.47;5082358;28;20246;-73
2021/12/13 05:45:41;;;;;;;8.03;7.67;;;;;;;8.38;94.61;102202.84;5114188;28;20169;-73
2021/12/13 05:48:12;;;;;;;7.73;7.07;;;;;;;8.42;94.87;102210.59;5114111;28;20260;-73
2021/12/13 05:50:48;;;;;;;7.57;7.27;;;;;;;8.45;94.61;102221.03;5113254;28;20177;-73
2021/12/13 05:53:24;;;;;;;7.33;7.07;;;;;;;8.43;94.31;102221.91;5114061;28;20230;-73
2021/12/13 05:56:05;;;;;;;6.37;6.10;;;;;;;8.42;94.48;102223.66;5114043;28;20238;-73
2021/12/13 05:58:45;;;;;;;6.43;6.13;;;;;;;8.36;94.53;102223.72;5114139;28;20224;-73
2021/12/13 06:01:35;;;;;;;8.07;7.63;;;;;;;8.28;94.81;102225.47;5114274;28;20603;-73
2021/12/13 06:04:22;;;;;;;7.20;6.80;;;;;;;8.42;94.25;102225.41;5114005;28;20242;-73
2021/12/13 06:06:54;;;;;;;8.50;7.77;;;;;;;8.46;94.38;102225.38;5113575;28;20584;-73
2021/12/13 06:09:58;;;;;;;9.27;8.77;;;;;;;8.41;94.43;102229.75;5095370;28;20265;-75
2021/12/13 06:12:31;;;;;;;7.47;6.70;;;;;;;8.39;94.66;102231.53;5100668;28;20205;-73
2021/12/13 06:15:29;;;;;;;7.37;7.00;;;;;;;8.42;94.59;102236.72;5095934;28;20588;-70
2021/12/13 06:17:58;;;;;;;6.47;6.27;;;;;;;8.45;94.49;102234.09;5112766;28;20209;-70
2021/12/13 06:20:32;;;;;;;8.63;8.17;;;;;;;8.45;94.62;102231.47;5113303;28;20254;-70
2021/12/13 06:23:06;;;;;;;8.23;7.90;;;;;;;8.45;94.55;102234.09;5113833;28;20174;-70
2021/12/13 06:25:34;;;;;;;8.37;7.87;;;;;;;8.54;94.20;102240.97;5113508;28;20180;-73
2021/12/13 06:28:01;;;;;;;8.93;8.13;;;;;;;8.57;94.09;102234.84;5113472;28;20230;-73
2021/12/13 06:30:31;;;;;;;7.27;6.87;;;;;;;8.49;94.37;102235.78;5113647;28;20189;-73
2021/12/13 06:33:03;;;;;;;9.60;8.43;;;;;;;8.54;94.50;102231.41;5095579;28;20193;-73
2021/12/13 06:35:56;;;;;;;8.73;8.33;;;;;;;8.57;94.10;102233.09;5113397;28;20581;-73
2021/12/13 06:38:41;;;;;;;8.27;7.67;;;;;;;8.51;94.38;102228.81;5095650;28;20627;-73
2021/12/13 06:41:09;;;;;;;9.37;7.03;;;;;;;8.51;94.07;102228.81;5113654;28;20181;-70
2021/12/13 06:43:44;;;;;;;10.40;8.07;;;;;;;8.54;93.94;102233.13;5113297;28;20528;-70
2021/12/13 06:46:24;;;;;;;8.33;7.73;;;;;;;8.45;93.89;102234.09;5113361;28;20230;-73
2021/12/13 06:48:59;;;;;;;7.97;7.30;;;;;;;8.48;94.06;102234.06;5113444;28;20418;-73
2021/12/13 06:51:51;;;;;;;7.47;7.07;;;;;;;8.42;93.98;102238.47;5113458;28;20169;-73
2021/12/13 06:54:26;;;;;;;7.33;6.93;;;;;;;8.48;93.78;102238.41;5113191;28;20185;-73
2021/12/13 06:57:10;;;;;;;8.70;8.00;;;;;;;8.47;93.81;102240.16;5113412;28;20230;-73
2021/12/13 06:59:45;;;;;;;8.87;8.47;;;;;;;8.67;93.03;102240.00;5094690;28;20213;-73
2021/12/13 07:02:35;;;;;;;9.30;8.60;;;;;;;8.67;92.90;102239.13;5097960;28;20181;-73
2021/12/13 07:05:07;;;;;;;9.40;8.30;;;;;;;8.68;92.75;102236.50;5116846;28;20173;-73
2021/12/13 07:07:55;;;;;;;8.07;7.77;;;;;;;8.64;92.81;102240.00;5117118;28;20184;-73
2021/12/13 07:10:26;;;;;;;8.07;7.37;;;;;;;8.65;92.86;102241.75;5103272;28;20666;-73
2021/12/13 07:12:57;;;;;;;8.57;7.73;;;;;;;8.77;92.52;102240.75;5117013;28;20579;-73
2021/12/13 07:15:29;;;;;;;8.10;7.37;;;;;;;8.69;92.55;102234.75;5116974;28;20178;-73
2021/12/13 07:18:18;;;;;;;8.80;8.10;;;;;;;8.74;92.13;102236.44;5117118;28;20182;-73
2021/12/13 07:20:56;;;;;;;7.57;7.20;;;;;;;8.68;92.29;102236.50;5098223;28;20220;-73
2021/12/13 07:23:23;;;;;;;7.93;7.40;;;;;;;8.64;92.52;102241.75;5116449;28;20246;-73
2021/12/13 07:25:53;;;;;;;8.40;7.73;;;;;;;8.75;92.03;102251.22;5116504;28;20189;-73
2021/12/13 07:28:35;;;;;;;7.20;6.90;;;;;;;8.67;92.19;102250.44;5116645;28;20686;-73
2021/12/13 07:31:08;;;;;;;7.53;7.03;;;;;;;8.79;91.92;102263.41;5098927;28;20223;-73
2021/12/13 07:33:40;;;;;;;8.70;8.10;;;;;;;8.79;91.66;102258.16;5098667;28;20189;-74
2021/12/13 07:36:24;;;;;;;8.23;7.73;;;;;;;8.80;91.62;102264.25;5116321;28;20232;-73
2021/12/13 07:38:58;;;;;;;7.80;7.30;;;;;;;8.78;91.59;102264.25;5116205;28;20205;-73
2021/12/13 07:41:36;;;;;;;7.67;6.90;;;;;;;8.81;91.30;102266.84;5116814;28;20189;-70
2021/12/13 07:44:03;;;;;;;7.60;7.20;;;;;;;8.68;91.64;102266.97;5116402;28;20173;-71
2021/12/13 07:46:31;;;;;;;6.30;6.20;;;;;;;8.76;91.50;102273.00;5116007;28;20654;-71
2021/12/13 07:49:08;;;;;;;6.63;6.23;;;;;;;8.74;91.60;102282.59;5097727;28;20209;-71
2021/12/13 07:51:47;;;;;;;7.83;7.27;;;;;;;8.65;91.75;102280.06;5116529;28;20616;-71
2021/12/13 07:54:19;;;;;;;7.53;7.13;;;;;;;8.69;91.77;102285.22;5116222;28;20685;-71
2021/12/13 07:57:00;;;;;;;7.07;6.53;;;;;;;8.65;91.52;102283.53;5116155;28;20668;-71
2021/12/13 07:59:33;;;;;;;6.40;5.90;;;;;;;8.74;91.42;102290.44;5097838;28;20208;-71
2021/12/13 08:02:05;;;;;;;7.00;6.70;;;;;;;8.68;91.03;102286.09;5097695;28;20189;-70
2021/12/13 08:04:33;;;;;;;7.10;6.80;;;;;;;8.64;91.13;102287.00;5115977;28;20631;-70
2021/12/13 08:07:08;;;;;;;6.07;5.67;;;;;;;8.59;91.35;102298.38;5116304;28;20182;-70
2021/12/13 08:09:46;;;;;;;5.93;5.83;;;;;;;8.65;90.94;102303.56;5115601;28;20193;-71
2021/12/13 08:12:19;;;;;;;6.57;6.27;;;;;;;8.65;90.82;102303.56;5096940;28;20608;-70
2021/12/13 08:14:49;;;;;;;5.77;5.53;;;;;;;8.64;90.91;102294.84;5115336;28;20672;-70
2021/12/13 08:17:31;;;;;;;7.33;6.97;;;;;;;8.65;91.10;102299.22;5115727;28;20173;-73
2021/12/13 08:20:07;;;;;;;5.83;5.63;;;;;;;8.62;90.98;102299.22;5115512;28;20261;-73
2021/12/13 08:22:34;;;;;;;5.70;5.50;;;;;;;8.64;90.91;102310.50;5115288;28;20619;-73
2021/12/13 08:25:06;;;;;;;6.63;6.23;;;;;;;8.60;91.01;102306.19;5115336;28;20264;-73
2021/12/13 08:27:41;;;;;;;7.13;6.50;;;;;;;8.66;91.10;102310.50;5115498;28;20190;-73
2021/12/13 08:30:13;;;;;;;6.63;6.33;;;;;;;8.67;91.05;102315.72;5115164;28;20674;-73
2021/12/13 08:33:03;;;;;;;5.90;5.70;;;;;;;8.64;91.18;102313.09;5097150;28;20587;-73
2021/12/13 08:36:01;;;;;;;6.93;6.57;;;;;;;8.54;91.41;102320.16;5115367;28;20232;-73
2021/12/13 08:38:38;;;;;;;7.07;6.77;;;;;;;8.58;91.32;102315.78;5097215;28;20601;-70
2021/12/13 08:41:14;;;;;;;7.03;6.47;;;;;;;8.64;91.03;102317.47;5114896;28;20200;-70
2021/12/13 08:44:12;;;;;;;6.27;6.07;;;;;;;8.60;91.57;102315.78;5096896;28;20651;-70
2021/12/13 08:46:51;;;;;;;6.63;6.33;;;;;;;8.58;91.52;102321.00;5084665;28;20205;-73
2021/12/13 08:49:30;;;;;;;6.37;5.97;;;;;;;8.60;91.20;102321.00;5114922;28;20720;-73
2021/12/13 08:52:14;;;;;;;6.70;6.30;;;;;;;8.65;90.94;102320.09;5115254;28;20184;-73
2021/12/13 08:54:52;;;;;;;6.73;6.07;;;;;;;8.60;91.20;102321.88;5115029;28;20222;-70
2021/12/13 08:57:43;;;;;;;6.10;5.90;;;;;;;8.63;91.18;102318.34;5114925;28;20173;-71
2021/12/13 09:00:13;;;;;;;6.63;6.23;;;;;;;8.69;90.74;102321.78;5114527;28;20204;-70
2021/12/13 09:02:48;;;;;;;6.57;6.13;;;;;;;8.71;90.49;102319.16;5114903;28;20193;-72
2021/12/13 09:05:19;;;;;;;6.60;6.30;;;;;;;8.64;91.01;102325.31;5097431;28;20192;-73
2021/12/13 09:08:00;;;;;;;5.43;5.33;;;;;;;8.61;91.00;102320.13;5114759;28;20165;-73
2021/12/13 09:10:46;;;;;;;6.50;6.27;;;;;;;8.65;90.74;102320.09;5114338;28;20188;-70
2021/12/13 09:13:16;;;;;;;5.67;5.33;;;;;;;8.69;90.56;102319.16;5096902;28;20185;-73
2021/12/13 09:15:45;;;;;;;5.30;5.20;;;;;;;8.69;90.38;102320.91;5115134;28;20178;-73
2021/12/13 09:18:19;;;;;;;5.43;4.97;;;;;;;8.67;90.44;102323.56;5114703;28;20216;-74
2021/12/13 09:20:54;;;;;;;7.73;7.07;;;;;;;8.68;90.47;102327.03;5114244;28;20215;-73
2021/12/13 09:23:23;;;;;;;6.03;5.63;;;;;;;8.69;90.74;102326.16;5114820;28;20527;-73
2021/12/13 09:26:05;;;;;;;5.70;5.23;;;;;;;8.81;90.26;102331.28;5114066;28;20177;-73
2021/12/13 09:28:36;;;;;;;5.77;5.37;;;;;;;8.73;90.10;102335.69;5114067;28;20220;-73
2021/12/13 09:31:11;;;;;;;5.27;5.07;;;;;;;8.80;89.87;102340.00;5114626;28;20177;-73
2021/12/13 09:33:43;;;;;;;5.60;5.30;;;;;;;8.87;89.76;102349.53;5114608;28;20173;-74
2021/12/13 09:36:31;;;;;;;5.47;5.20;;;;;;;8.73;89.80;102341.78;5113981;28;20177;-73
2021/12/13 09:39:06;;;;;;;4.10;4.00;;;;;;;8.78;90.28;102329.53;5114125;28;20201;-73
2021/12/13 09:41:33;;;;;;;8.80;5.33;;;;;;;8.84;89.44;102344.31;5114223;28;20570;-73
2021/12/13 09:44:04;;;;;;;4.90;4.80;;;;;;;8.83;89.80;102345.19;5113818;28;20177;-73
2021/12/13 09:46:33;;;;;;;5.07;4.87;;;;;;;8.81;89.85;102357.41;5113879;28;20623;-73
2021/12/13 09:49:05;;;;;;;5.17;5.07;;;;;;;8.94;89.63;102355.56;5095748;28;20559;-73
2021/12/13 09:51:52;;;;;;;5.20;5.00;;;;;;;8.86;89.50;102360.84;5095577;28;20188;-73
2021/12/13 09:54:24;;;;;;;4.70;4.60;;;;;;;8.76;90.00;102360.03;5114111;28;20243;-73
2021/12/13 09:56:51;;;;;;;4.83;4.60;;;;;;;8.81;89.72;102357.41;5113765;28;20173;-73
2021/12/13 09:59:27;;;;;;;5.20;5.00;;;;;;;8.86;89.95;102350.41;5113696;28;20571;-74
2021/12/13 10:01:57;;;;;;;6.43;5.73;;;;;;;8.85;89.78;102353.00;5114613;28;20615;-74
2021/12/13 10:04:30;;;;;;;4.83;4.73;;;;;;;8.88;90.08;102353.00;5113888;28;20227;-73
2021/12/13 10:07:01;;;;;;;5.67;5.37;;;;;;;8.82;90.09;102348.69;5113960;28;20190;-73
2021/12/13 10:09:39;;;;;;;4.83;4.63;;;;;;;8.84;90.01;102352.13;5114160;28;20201;-75
2021/12/13 10:12:15;;;;;;;5.27;5.17;;;;;;;8.85;90.23;102359.09;5114170;28;20174;-74
2021/12/13 10:14:52;;;;;;;5.27;5.07;;;;;;;8.93;89.75;102357.31;5113919;28;20173;-74
2021/12/13 10:17:22;;;;;;;5.80;5.60;;;;;;;8.96;89.80;102354.66;5113816;28;20188;-74
2021/12/13 10:19:52;;;;;;;6.03;5.50;;;;;;;8.93;90.02;102352.09;5095090;28;20225;-73
2021/12/13 10:22:24;;;;;;;5.70;5.60;;;;;;;9.05;89.44;102353.72;5114528;28;20197;-73
2021/12/13 10:24:55;;;;;;;6.40;5.90;;;;;;;8.94;89.83;102348.59;5114114;28;20185;-73
2021/12/13 10:27:24;;;;;;;6.27;5.83;;;;;;;8.90;89.92;102359.94;5113771;28;20181;-73
2021/12/13 10:29:54;;;;;;;6.47;6.07;;;;;;;9.03;89.78;102353.72;5113352;28;20219;-73
2021/12/13 10:32:28;;;;;;;6.30;6.10;;;;;;;8.98;89.72;102345.06;5113767;28;20185;-73
2021/12/13 10:35:04;;;;;;;8.03;6.27;;;;;;;8.99;89.63;102344.16;5095410;28;20244;-73
2021/12/13 10:37:37;;;;;;;11.20;6.43;;;;;;;8.98;89.74;102347.66;5116736;28;20251;-73
2021/12/13 10:40:15;;;;;;;6.03;5.83;;;;;;;8.93;89.93;102352.09;5117844;28;20284;-73
2021/12/13 10:42:52;;;;;;;6.00;5.90;;;;;;;8.91;90.05;102359.03;5117663;28;20172;-70
2021/12/13 10:45:30;;;;;;;6.57;6.00;;;;;;;9.00;89.78;102359.00;5117603;28;20172;-70
2021/12/13 10:48:01;;;;;;;6.07;5.83;;;;;;;9.02;89.69;102357.22;5117237;28;20177;-70
2021/12/13 10:50:49;;;;;;;5.53;5.43;;;;;;;8.96;89.74;102357.28;5099195;28;20170;-70
2021/12/13 10:53:20;;;;;;;5.67;5.57;;;;;;;8.96;89.92;102351.19;5117671;28;20230;-70
2021/12/13 10:56:02;;;;;;;5.97;5.67;;;;;;;8.97;90.13;102359.00;5117322;28;20612;-70
2021/12/13 10:58:34;;;;;;;6.30;6.03;;;;;;;8.89;90.16;102345.13;5117205;28;20709;-70
2021/12/13 11:01:17;;;;;;;6.17;5.73;;;;;;;8.98;89.99;102352.91;5116901;28;20196;-70
2021/12/13 11:03:44;;;;;;;6.77;6.40;;;;;;;8.93;90.06;102348.56;5117442;28;20177;-70
2021/12/13 11:06:12;;;;;;;6.23;5.93;;;;;;;8.98;89.71;102342.44;5117102;28;20189;-70
2021/12/13 11:08:41;;;;;;;7.17;6.57;;;;;;;8.93;89.67;102345.97;5116956;28;20220;-70
2021/12/13 11:11:09;;;;;;;6.60;6.30;;;;;;;8.95;90.13;102344.22;5117426;28;20201;-70
2021/12/13 11:13:38;;;;;;;6.30;6.10;;;;;;;9.01;89.51;102344.19;5116696;28;20185;-70
2021/12/13 11:16:14;;;;;;;7.17;6.70;;;;;;;9.01;89.55;102349.41;5116804;28;20189;-70
2021/12/13 11:18:41;;;;;;;7.07;6.57;;;;;;;8.93;89.43;102352.09;5116429;28;20204;-71
2021/12/13 11:21:31;;;;;;;6.60;6.03;;;;;;;8.94;89.77;102347.72;5116357;28;20217;-71
2021/12/13 11:24:04;;;;;;;5.63;5.23;;;;;;;8.92;90.03;102346.84;5116394;28;20185;-71
2021/12/13 11:26:33;;;;;;;5.40;5.20;;;;;;;9.03;89.62;102350.25;5117028;28;20181;-71
2021/12/13 11:29:01;;;;;;;6.73;6.33;;;;;;;8.93;89.90;102357.31;5116390;28;20209;-70
2021/12/13 11:31:30;;;;;;;6.67;6.37;;;;;;;8.88;89.81;102351.25;5098397;28;20642;-70
2021/12/13 11:34:00;;;;;;;6.00;5.77;;;;;;;8.83;90.04;102345.19;5116664;28;20173;-70
2021/12/13 11:37:01;;;;;;;6.60;6.23;;;;;;;8.87;90.59;102351.28;5116850;28;20185;-70
2021/12/13 11:39:46;;;;;;;5.53;5.23;;;;;;;8.87;90.71;102353.88;5116594;28;20563;-70
2021/12/13 11:42:23;;;;;;;6.50;6.20;;;;;;;8.86;90.87;102353.00;5116742;28;20614;-70
2021/12/13 11:45:17;;;;;;;7.30;7.00;;;;;;;8.95;90.65;102352.06;5116500;28;20188;-70
2021/12/13 11:48:23;;;;;;;5.47;5.20;;;;;;;9.05;90.52;102346.72;5115341;28;20173;-71
2021/12/13 11:51:16;;;;;;;6.17;5.83;;;;;;;9.09;90.27;102347.59;5116514;28;20188;-70
2021/12/13 11:54:11;;;;;;;6.67;6.20;;;;;;;9.13;90.23;102345.81;5116635;28;20188;-70
2021/12/13 11:57:00;;;;;;;5.17;4.87;;;;;;;9.17;89.71;102339.69;5097532;28;20188;-70
2021/12/13 12:00:20;;;;;;;4.93;4.83;;;;;;;9.19;89.31;102340.53;5097891;28;20205;-73
2021/12/13 12:03:05;;;;;;;5.40;5.20;;;;;;;9.22;89.11;102340.50;5033314;28;20729;-71
2021/12/13 12:06:13;;;;;;;5.67;5.37;;;;;;;9.23;88.96;102339.63;5131865;27;20583;-71
2021/12/13 12:09:13;;;;;;;5.50;5.23;;;;;;;9.18;88.72;102342.28;5116175;28;20227;-69
2021/12/13 12:12:15;;;;;;;5.10;4.90;;;;;;;9.21;88.87;102336.13;5115599;28;20181;-69
2021/12/13 12:14:41;;;;;;;4.97;4.87;;;;;;;9.24;89.18;102341.34;5116397;28;20638;-69
2021/12/13 12:17:08;;;;;;;5.67;5.47;;;;;;;9.29;89.12;102337.81;5116029;28;20189;-69